Data for 07/31/2006

Time Sea-Level Adjusted Pressure Absolute Pressure Temperature Relative Humidity Dew Point   
(mb) (inHg) (mb) (inHg) (C) (F) (%) (C) (F)
00:05 1015 29.97 844 24.92 16.7 62 35 1.4 34.5
00:10 1015 29.97 844 24.92 16.7 62 34 0.9 33.6
00:15 1015 29.97 844 24.92 16.8 62.2 34 1 33.9
00:20 1015 29.97 844 24.92 16.7 62.1 35 1.4 34.5
00:25 1015 29.97 844 24.92 16.7 62.1 34 0.8 33.4
00:30 1015 29.97 844 24.92 16.7 62 33 0.5 32.8
00:35 1015 29.97 844 24.92 16.7 62 33 0.5 32.9
00:40 1015 29.97 844 24.92 16.6 62 34 1 33.8
00:45 1015 29.97 844 24.92 16.2 61.2 35 0.9 33.5
00:50 1015 29.97 844 24.92 16.2 61.2 34 0.6 33
00:55 1015 29.97 844 24.92 16.4 61.6 34 0.6 33.2
01:00 1015 29.97 844 24.92 16.6 61.9 33 0.4 32.7
01:05 1015 29.97 844 24.92 16.6 61.9 33 0.6 33
01:10 1015 29.97 844 24.92 16.5 61.7 33 0.5 32.9
01:15 1015 29.97 844 24.92 16.1 60.9 34 0.3 32.6
01:20 1015 29.97 844 24.92 15.8 60.4 35 0.5 32.9
01:25 1015 29.97 844 24.92 15.2 59.4 38 1.1 34
01:30 1015 29.97 844 24.92 14.9 58.8 38 0.7 33.2
01:35 1015 29.97 844 24.92 14.8 58.7 38 0.9 33.6
01:40 1015 29.97 844 24.92 14.9 58.8 38 0.7 33.2
01:45 1015 29.97 845 24.95 14.8 58.7 38 0.8 33.4
01:50 1015 29.97 845 24.95 14.7 58.5 35 -0.5 31.1
01:55 1015 29.97 845 24.95 14.8 58.7 38 0.8 33.5
02:00 1015 29.97 845 24.95 14.6 58.3 39 1 33.8
02:05 1015 29.97 845 24.95 14.2 57.5 41 1.1 34
02:10 1015 29.97 845 24.95 13.9 57.1 39 0.4 32.7
02:15 1015 29.97 845 24.95 13.9 57.1 41 1.1 34
02:20 1015 29.97 845 24.95 13.6 56.4 42 0.9 33.7
02:25 1016 30 845 24.95 13.6 56.5 41 0.8 33.4
02:30 1016 30 845 24.95 13.7 56.6 41 0.7 33.3
02:35 1016 30 845 24.95 13.2 55.8 43 1 33.9
02:40 1016 30 845 24.95 13.4 56 39 -0.1 31.9
02:45 1016 30 845 24.95 13.7 56.6 39 0.1 32.2
02:50 1016 30 845 24.95 13.5 56.3 40 0.3 32.5
02:55 1016 30 845 24.95 13.3 56 41 0.4 32.6
03:00 1016 30 845 24.95 12.9 55.2 42 0.4 32.7
03:05 1016 30 845 24.95 12.7 54.8 44 0.7 33.3
03:10 1016 30 845 24.95 12.4 54.2 45 0.8 33.4
03:15 1016 30 845 24.95 12 53.6 45 0.6 33
03:20 1016 30 845 24.95 12.2 53.9 43 0.1 32.2
03:25 1016 30 845 24.95 12.6 54.7 40 -0.5 31.1
03:30 1016 30 845 24.95 12.8 55 42 0.3 32.5
03:35 1016 30 845 24.95 12.5 54.6 41 -0.2 31.7
03:40 1016 30 845 24.95 12.4 54.3 44 0.6 33
03:45 1016 30 845 24.95 11.8 53.2 45 0.3 32.5
03:50 1016 30 845 24.95 11.5 52.7 47 0.6 33.1
03:55 1016 30 845 24.95 11.1 52 48 0.6 33
04:00 1016 30 845 24.95 11 51.8 47 0.1 32.1
04:05 1016 30 845 24.95 11.1 52 47 0.4 32.7
04:10 1016 30 846 24.98 11.1 51.9 47 0.2 32.4
04:15 1016 30 846 24.98 11.1 51.9 46 0 32
04:20 1016 30 846 24.98 11 51.9 47 0.1 32.2
04:25 1016 30 846 24.98 11.4 52.5 43 -0.6 31
04:30 1017 30.03 846 24.98 11.6 53 44 -0.2 31.6
04:35 1017 30.03 846 24.98 11.2 52.1 44 -0.4 31.2
04:40 1017 30.03 846 24.98 11.3 52.3 43 -0.8 30.6
04:45 1017 30.03 846 24.98 11.5 52.8 45 0.2 32.3
04:50 1017 30.03 846 24.98 10.9 51.6 46 -0.2 31.7
04:55 1017 30.03 846 24.98 10.8 51.5 46 -0.2 31.6
05:00 1017 30.03 846 24.98 11.1 52 45 -0.4 31.3
05:05 1017 30.03 846 24.98 11.3 52.4 45 -0.2 31.6
05:10 1017 30.03 846 24.98 11.2 52.1 45 -0.3 31.5
05:15 1017 30.03 846 24.98 11.1 52 46 -0.1 31.8
05:20 1017 30.03 846 24.98 10.8 51.4 47 -0.1 31.8
05:25 1017 30.03 846 24.98 10.5 50.8 48 -0.1 31.8
05:30 1017 30.03 846 24.98 10.3 50.5 49 0.1 32.1
05:35 1017 30.03 846 24.98 10.3 50.5 47 -0.5 31.2
05:40 1017 30.03 846 24.98 10.6 51 47 -0.2 31.6
05:45 1017 30.03 846 24.98 10.5 50.9 48 -0.1 31.9
05:50 1017 30.03 846 24.98 10.3 50.5 50 0.4 32.7
05:55 1017 30.03 846 24.98 9.6 49.2 52 0.1 32.2
06:00 1017 30.03 846 24.98 9.6 49.3 51 0.1 32.2
06:05 1017 30.03 846 24.98 9.5 49 52 0.1 32.1
06:10 1017 30.03 847 25.01 9.5 49 52 0.1 32.1
06:15 1017 30.03 847 25.01 9.6 49.3 51 -0.1 31.9
06:20 1018 30.06 847 25.01 10 50.1 50 0.2 32.3
06:25 1017 30.03 847 25.01 9.9 49.9 50 -0.1 31.9
06:30 1017 30.03 847 25.01 10.4 50.7 49 0.2 32.3
06:35 1017 30.03 847 25.01 10.5 50.8 48 -0.1 31.8
06:40 1017 30.03 847 25.01 10.8 51.4 47 0.1 32.2
06:45 1018 30.06 847 25.01 11.2 52.1 45 -0.4 31.4
06:50 1018 30.06 847 25.01 11.4 52.5 45 -0.2 31.7
06:55 1018 30.06 847 25.01 11.7 53 44 -0 31.9
07:00 1018 30.06 847 25.01 11.9 53.4 46 0.5 33
07:05 1018 30.06 847 25.01 11.6 53 48 0.9 33.6
07:10 1018 30.06 847 25.01 11.2 52.1 50 1.2 34.2
07:15 1018 30.06 847 25.01 10.7 51.2 52 1.2 34.2
07:20 1018 30.06 847 25.01 10.7 51.2 52 1.1 34.1
07:25 1018 30.06 847 25.01 10.8 51.5 51 1.1 34
07:30 1018 30.06 847 25.01 11 51.8 51 1.2 34.1
07:35 1018 30.06 847 25.01 11.2 52.2 51 1.5 34.6
07:40 1018 30.06 847 25.01 11.4 52.5 50 1.3 34.3
07:45 1018 30.06 847 25.01 11.8 53.2 47 1.1 33.9
07:50 1018 30.06 847 25.01 12.2 53.9 46 0.9 33.7
07:55 1018 30.06 847 25.01 12.3 54.1 46 0.9 33.6
08:00 1018 30.06 847 25.01 13 55.4 42 0.5 32.9
08:05 1018 30.06 847 25.01 13.4 56.2 42 0.8 33.5
08:10 1018 30.06 847 25.01 13.7 56.7 39 0.1 32.2
08:15 1018 30.06 847 25.01 14.1 57.4 39 0.3 32.5
08:20 1018 30.06 847 25.01 13.4 56.2 39 -0.3 31.5
08:25 1018 30.06 847 25.01 13.4 56.1 40 -0 32
08:30 1018 30.06 847 25.01 13.6 56.4 40 0.2 32.3
08:35 1018 30.06 847 25.01 13.7 56.6 40 0.3 32.5
08:40 1018 30.06 847 25.01 13.6 56.4 40 0.4 32.7
08:45 1018 30.06 847 25.01 13.7 56.6 40 0.3 32.5
08:50 1018 30.06 847 25.01 13.9 57.1 39 0.3 32.5
08:55 1018 30.06 847 25.01 14 57.2 39 0.4 32.7
09:00 1018 30.06 847 25.01 13.8 56.8 40 0.5 32.8
09:05 1018 30.06 847 25.01 13.7 56.7 40 0.5 32.9
09:10 1018 30.06 847 25.01 13.9 57 41 0.8 33.4
09:15 1018 30.06 847 25.01 14.1 57.4 41 1.2 34.1
09:20 1018 30.06 847 25.01 14.2 57.5 40 0.8 33.5
09:25 1018 30.06 847 25.01 14.2 57.5 39 0.4 32.8
09:30 1018 30.06 847 25.01 14.3 57.7 39 0.7 33.3
09:35 1018 30.06 847 25.01 14.6 58.3 40 1.3 34.3
09:40 1018 30.06 847 25.01 15 59.1 36 0.2 32.4
09:45 1018 30.06 847 25.01 15.8 60.5 35 0.6 33
09:50 1018 30.06 847 25.01 16 60.9 34 0.4 32.7
09:55 1017 30.03 847 25.01 16.4 61.5 34 0.5 32.9
10:00 1017 30.03 847 25.01 16.6 61.9 34 0.7 33.3
10:05 1017 30.03 847 25.01 17.5 63.4 32 0.7 33.3
10:10 1017 30.03 847 25.01 17.8 64.1 32 1.1 34
10:15 1017 30.03 847 25.01 17.6 63.7 32 0.9 33.5
10:20 1017 30.03 846 24.98 18.1 64.5 31 0.6 33.1
10:25 1017 30.03 846 24.98 17.3 63.1 34 1.3 34.3
10:30 1017 30.03 846 24.98 17.3 63.1 32 0.4 32.7
10:35 1017 30.03 846 24.98 17.9 64.3 31 0.7 33.2
10:40 1017 30.03 846 24.98 18.2 64.8 31 0.9 33.7
10:45 1017 30.03 846 24.98 17.7 63.8 31 0.6 33.2
10:50 1017 30.03 846 24.98 17.7 63.8 32 0.7 33.3
10:55 1017 30.03 846 24.98 18.1 64.6 31 0.7 33.3
11:00 1017 30.03 846 24.98 18.3 64.9 32 1.5 34.6
11:05 1017 30.03 846 24.98 18.3 64.9 31 0.9 33.7
11:10 1017 30.03 846 24.98 18.6 65.4 30 0.9 33.6
11:15 1017 30.03 846 24.98 19.1 66.4 30 1.2 34.1
11:20 1017 30.03 846 24.98 19.1 66.4 30 1.3 34.4
11:25 1017 30.03 846 24.98 18.8 65.9 30 1.1 33.9
11:30 1017 30.03 846 24.98 18.1 64.6 31 0.7 33.2
11:35 1017 30.03 846 24.98 17.7 63.8 31 0.5 32.9
11:40 1017 30.03 846 24.98 18.5 65.4 30 0.7 33.3
11:45 1017 30.03 846 24.98 19.3 66.7 29 1 33.7
11:50 1017 30.03 846 24.98 19.5 67 29 0.9 33.6
11:55 1017 30.03 846 24.98 19.6 67.3 29 1 33.9
12:00 1017 30.03 846 24.98 19.7 67.5 28 1 33.8
12:05 1016 30 846 24.98 20.1 68.2 27 0.5 32.9
12:10 1016 30 846 24.98 20.4 68.7 28 1.4 34.5
12:15 1016 30 846 24.98 20.1 68.2 29 1.6 34.9
12:20 1016 30 846 24.98 19.3 66.7 29 1.1 34
12:25 1016 30 846 24.98 20 67.9 27 0.6 33.1
12:30 1016 30 845 24.95 19.6 67.3 26 -0 31.9
12:35 1016 30 846 24.98 19.7 67.5 27 0.5 32.9
12:40 1016 30 846 24.98 20 68 26 0.4 32.6
12:45 1016 30 846 24.98 20.3 68.6 26 0.5 32.9
12:50 1016 30 845 24.95 20.1 68.2 27 0.7 33.3
12:55 1016 30 845 24.95 20.1 68.2 27 0.6 33.1
13:00 1016 30 845 24.95 20.5 68.8 27 0.8 33.4
13:05 1016 30 845 24.95 20.7 69.3 26 0.9 33.6
13:10 1016 30 845 24.95 21.3 70.3 25 0.7 33.2
13:15 1016 30 845 24.95 21.6 71 25 1.1 34
13:20 1016 30 845 24.95 21.3 70.3 25 0.5 32.8
13:25 1016 30 845 24.95 21.6 70.9 25 0.8 33.4
13:30 1016 30 845 24.95 21.4 70.6 25 0.8 33.5
13:35 1016 30 845 24.95 21.2 70.2 25 0.4 32.7
13:40 1016 30 845 24.95 21.4 70.5 24 0.3 32.6
13:45 1016 30 845 24.95 21.7 71 24 0.2 32.3
13:50 1016 30 845 24.95 22.1 71.7 25 1.1 33.9
13:55 1016 30 845 24.95 21.9 71.4 22 -0.5 31.1
14:00 1016 30 845 24.95 20.9 69.5 25 0.2 32.4
14:05 1016 30 845 24.95 21.2 70.1 23 -0.4 31.2
14:10 1015 29.97 845 24.95 21.7 71 24 0.3 32.6
14:15 1015 29.97 845 24.95 21 69.8 25 0.3 32.6
14:20 1015 29.97 844 24.92 20.4 68.8 26 0.2 32.3
14:25 1015 29.97 844 24.92 21.2 70.1 24 -0.1 31.7
14:30 1015 29.97 844 24.92 20.6 69.1 25 -0 32
14:35 1015 29.97 844 24.92 21.1 69.9 25 0.4 32.7
14:40 1015 29.97 844 24.92 21.5 70.7 23 -0.3 31.5
14:45 1015 29.97 844 24.92 21.4 70.6 24 -0.1 31.8
14:50 1015 29.97 844 24.92 21.5 70.8 24 0.1 32.2
14:55 1015 29.97 844 24.92 22 71.5 24 0.5 32.8
15:00 1015 29.97 844 24.92 23 73.4 24 1.6 34.9
15:05 1015 29.97 844 24.92 23.1 73.5 21 0.1 32.1
15:10 1015 29.97 844 24.92 22.8 73.1 23 1 33.8
15:15 1015 29.97 844 24.92 22.8 73 22 0.4 32.7
15:20 1015 29.97 844 24.92 22 71.6 24 0.7 33.3
15:25 1015 29.97 844 24.92 21.9 71.5 25 1.3 34.3
15:30 1015 29.97 844 24.92 22.5 72.5 24 1 33.8
15:35 1015 29.97 844 24.92 22.6 72.6 23 0.8 33.5
15:40 1015 29.97 844 24.92 22 71.6 25 1.2 34.2
15:45 1015 29.97 844 24.92 22.1 71.8 25 1.2 34.2
15:50 1015 29.97 844 24.92 21.8 71.3 25 1.3 34.3
15:55 1015 29.97 844 24.92 21.4 70.5 25 0.8 33.4
16:00 1014 29.94 844 24.92 22.2 71.9 23 0 32
16:05 1014 29.94 844 24.92 22.6 72.7 23 0.4 32.8
16:10 1014 29.94 844 24.92 22.9 73.2 22 0.5 32.8
16:15 1014 29.94 844 24.92 22.9 73.3 22 0.3 32.6
16:20 1014 29.94 844 24.92 23.5 74.2 21 -0 32
16:25 1014 29.94 844 24.92 23.3 73.9 22 0.3 32.6
16:30 1014 29.94 844 24.92 23.4 74 22 0.8 33.4
16:35 1014 29.94 844 24.92 22.9 73.3 22 0.6 33
16:40 1014 29.94 843 24.89 22.6 72.6 23 0.4 32.7
16:45 1014 29.94 843 24.89 22.5 72.5 23 0.6 33.1
16:50 1014 29.94 843 24.89 22.5 72.5 23 0.6 33
16:55 1014 29.94 843 24.89 22.5 72.4 23 0.8 33.4
17:00 1014 29.94 843 24.89 22.1 71.8 23 0.4 32.7
17:05 1014 29.94 843 24.89 22 71.5 23 0 32
17:10 1014 29.94 843 24.89 22.5 72.5 21 -0.4 31.2
17:15 1014 29.94 843 24.89 22.7 72.9 22 -0 31.9
17:20 1014 29.94 843 24.89 22.6 72.6 21 -0.8 30.6
17:25 1014 29.94 843 24.89 22.4 72.4 19 -1.9 28.6
17:30 1014 29.94 843 24.89 22.3 72.1 22 -0.3 31.5
17:35 1014 29.94 843 24.89 22.5 72.4 21 -0.8 30.5
17:40 1014 29.94 843 24.89 22.6 72.7 21 -0.4 31.3
17:45 1014 29.94 843 24.89 22.2 72 23 0.4 32.8
17:50 1014 29.94 843 24.89 22.6 72.7 21 -0.7 30.7
17:55 1014 29.94 843 24.89 22.3 72.1 25 1.6 34.8
18:00 1014 29.94 843 24.89 21.7 71 30 3.3 38
18:05 1014 29.94 843 24.89 21.5 70.6 27 1.9 35.4
18:10 1014 29.94 843 24.89 21.5 70.7 25 0.9 33.6
18:15 1014 29.94 843 24.89 21.7 71 24 0.4 32.7
18:20 1014 29.94 843 24.89 21.7 71.1 26 1.7 35.1
18:25 1014 29.94 843 24.89 21.7 71.1 25 1 33.9
18:30 1014 29.94 843 24.89 21.5 70.7 26 1.1 34
18:35 1014 29.94 843 24.89 21.5 70.7 28 2.2 35.9
18:40 1014 29.94 843 24.89 21.4 70.6 28 2.4 36.2
18:45 1014 29.94 843 24.89 21.4 70.6 28 2.2 35.9
18:50 1014 29.94 843 24.89 21.4 70.5 29 2.8 37
18:55 1014 29.94 843 24.89 21.4 70.4 30 3.2 37.7
19:00 1014 29.94 843 24.89 21.4 70.6 30 3.5 38.3
19:05 1013 29.91 843 24.89 21.4 70.5 33 4.5 40.1
19:10 1013 29.91 843 24.89 21.4 70.5 35 5.7 42.2
19:15 1013 29.91 843 24.89 21.2 70.2 33 4.6 40.2
19:20 1013 29.91 843 24.89 21 69.7 34 4.5 40.1
19:25 1013 29.91 843 24.89 20.8 69.5 33 4.1 39.4
19:30 1013 29.91 843 24.89 21 69.7 35 4.9 40.8
19:35 1013 29.91 843 24.89 20.9 69.6 34 4.7 40.5
19:40 1013 29.91 843 24.89 21 69.9 34 4.9 40.7
19:45 1014 29.94 843 24.89 20.9 69.6 35 5.1 41.2
19:50 1014 29.94 843 24.89 20.4 68.7 38 5.7 42.2
19:55 1014 29.94 843 24.89 20.2 68.4 39 6.2 43.1
20:00 1014 29.94 843 24.89 20.3 68.5 37 5.4 41.7
20:05 1014 29.94 843 24.89 20.1 68.1 37 5 41
20:10 1014 29.94 844 24.92 19.8 67.7 37 5 41.1
20:15 1014 29.94 844 24.92 19.3 66.7 40 5.4 41.8
20:20 1014 29.94 844 24.92 18.7 65.6 41 5.3 41.5
20:25 1014 29.94 844 24.92 18.5 65.2 42 5.5 41.9
20:30 1014 29.94 844 24.92 18.3 64.9 43 5.5 41.9
20:35 1014 29.94 844 24.92 18 64.4 45 5.9 42.7
20:40 1014 29.94 844 24.92 17.7 63.8 47 6.4 43.6
20:45 1015 29.97 844 24.92 17.4 63.2 49 6.7 44.1
20:50 1015 29.97 844 24.92 17.1 62.8 51 7.1 44.7
20:55 1015 29.97 844 24.92 17 62.6 50 6.5 43.7
21:00 1015 29.97 844 24.92 16.9 62.5 54 7.6 45.6
21:05 1015 29.97 844 24.92 16.4 61.5 57 8 46.4
21:10 1015 29.97 844 24.92 15.9 60.6 61 8.4 47.1
21:15 1015 29.97 844 24.92 15.5 59.8 64 8.7 47.6
21:20 1015 29.97 844 24.92 15.4 59.7 62 8.2 46.7
21:25 1015 29.97 844 24.92 15.6 60.2 62 8.6 47.4
21:30 1015 29.97 844 24.92 15.7 60.3 62 8.6 47.5
21:35 1015 29.97 844 24.92 15.8 60.4 61 8.4 47.1
21:40 1015 29.97 844 24.92 16 60.7 59 8.1 46.7
21:45 1015 29.97 844 24.92 16.3 61.4 60 8.6 47.5
21:50 1015 29.97 845 24.95 16.4 61.4 63 9.5 49
21:55 1015 29.97 844 24.92 16.2 61.1 60 8.6 47.5
22:00 1015 29.97 844 24.92 16 60.7 62 8.7 47.6
22:05 1015 29.97 844 24.92 16 60.7 63 9 48.2
22:10 1015 29.97 844 24.92 16.1 61 58 7.8 46.1
22:15 1015 29.97 844 24.92 16.2 61.1 58 8 46.5
22:20 1015 29.97 844 24.92 16.3 61.3 58 8 46.4
22:25 1015 29.97 844 24.92 16.4 61.4 59 8.4 47
22:30 1015 29.97 844 24.92 16.3 61.3 60 8.5 47.3
22:35 1015 29.97 844 24.92 16.1 60.9 60 8.5 47.2
22:40 1015 29.97 844 24.92 16.1 61 60 8.4 47.1
22:45 1015 29.97 844 24.92 15.5 59.9 65 9.1 48.4
22:50 1015 29.97 844 24.92 14.8 58.7 72 9.8 49.6
22:55 1015 29.97 844 24.92 14.5 58 67 8.4 47.2
23:00 1015 29.97 844 24.92 14.4 58 68 8.6 47.5
23:05 1015 29.97 844 24.92 14.4 57.9 66 8.2 46.8
23:10 1015 29.97 844 24.92 14.2 57.5 68 8.5 47.2
23:15 1015 29.97 844 24.92 14 57.1 68 8.3 46.9
23:20 1015 29.97 844 24.92 13.8 56.9 69 8.3 46.9
23:25 1015 29.97 844 24.92 13.7 56.7 69 8.1 46.7
23:30 1015 29.97 844 24.92 13.9 57 67 7.9 46.2
23:35 1015 29.97 844 24.92 13.9 56.9 68 8.1 46.6
23:40 1015 29.97 844 24.92 13.7 56.7 65 7.4 45.3
23:45 1015 29.97 844 24.92 13.8 56.8 65 7.5 45.4
23:50 1015 29.97 844 24.92 13.6 56.5 67 7.8 46
23:55 1015 29.97 844 24.92 13.2 55.7 70 7.8 46
24:00 1015 29.97 844 24.92 13.2 55.8 71 8 46.4